createdAt,value
2018-08-23T00:01:58.337Z,99230.61
2018-08-23T00:04:28.774Z,99224.47
2018-08-23T00:07:01.852Z,99221.61
2018-08-23T00:09:36.664Z,99217.60
2018-08-23T00:12:07.357Z,99212.39
2018-08-23T00:14:36.966Z,99214.33
2018-08-23T00:17:06.717Z,99209.56
2018-08-23T00:19:37.649Z,99204.98
2018-08-23T00:22:08.250Z,99210.09
2018-08-23T00:24:39.119Z,99208.41
2018-08-23T00:27:09.099Z,99205.23
2018-08-23T00:29:40.071Z,99198.45
2018-08-23T00:32:10.684Z,99202.66
2018-08-23T00:34:41.052Z,99193.91
2018-08-23T00:37:13.374Z,99193.14
2018-08-23T00:39:43.243Z,99194.48
2018-08-23T00:42:13.767Z,99193.75
2018-08-23T00:44:55.865Z,99191.61
2018-08-23T00:47:30.686Z,99192.78
2018-08-23T00:50:00.928Z,99192.91
2018-08-23T00:52:39.725Z,99198.30
2018-08-23T00:55:15.828Z,99202.39
2018-08-23T00:57:46.494Z,99202.41
2018-08-23T01:00:20.581Z,99201.63
2018-08-23T01:02:51.454Z,99201.14
2018-08-23T01:05:26.451Z,99202.47
2018-08-23T01:07:57.068Z,99199.38
2018-08-23T01:10:27.690Z,99201.81
2018-08-23T01:13:00.142Z,99195.45
2018-08-23T01:15:31.449Z,99195.48
2018-08-23T01:18:15.019Z,99199.56
2018-08-23T01:20:46.181Z,99191.36
2018-08-23T01:23:16.282Z,99191.67
2018-08-23T01:25:48.092Z,99192.74
2018-08-23T01:28:18.332Z,99184.28
2018-08-23T01:30:49.050Z,99184.54
2018-08-23T01:33:21.577Z,99177.09
2018-08-23T01:35:52.588Z,99177.16
2018-08-23T01:38:23.856Z,99177.41
2018-08-23T01:40:59.701Z,99174.77
2018-08-23T01:43:29.442Z,99167.89
2018-08-23T01:45:59.765Z,99170.33
2018-08-23T01:48:29.627Z,99164.20
2018-08-23T01:50:59.076Z,99162.66
2018-08-23T01:53:33.396Z,99164.59
2018-08-23T01:56:03.319Z,99161.66
2018-08-23T01:58:35.155Z,99161.71
2018-08-23T02:01:13.845Z,99163.33
2018-08-23T02:03:44.164Z,99161.98
2018-08-23T02:06:15.396Z,99158.81
2018-08-23T02:08:46.664Z,99157.03
2018-08-23T02:11:16.776Z,99155.47
2018-08-23T02:13:49.752Z,99152.85
2018-08-23T02:16:21.588Z,99154.80
2018-08-23T02:18:52.439Z,99152.64
2018-08-23T02:21:22.383Z,99140.72
2018-08-23T02:23:54.129Z,99142.55
2018-08-23T02:26:24.211Z,99142.59
2018-08-23T02:28:53.859Z,99141.00
2018-08-23T02:31:24.293Z,99137.80
2018-08-23T02:33:54.205Z,99145.59
2018-08-23T02:36:24.942Z,99143.99
2018-08-23T02:38:57.765Z,99142.94
2018-08-23T02:41:27.925Z,99141.34
2018-08-23T02:43:58.032Z,99146.19
2018-08-23T02:46:28.912Z,99143.83
2018-08-23T02:48:59.010Z,99145.95
2018-08-23T02:51:40.566Z,99146.75
2018-08-23T02:54:13.427Z,99147.09
2018-08-23T02:56:48.257Z,99145.50
2018-08-23T02:59:18.974Z,99144.05
2018-08-23T03:01:49.877Z,99145.09
2018-08-23T03:04:22.912Z,99145.31
2018-08-23T03:06:54.900Z,99148.49
2018-08-23T03:09:28.600Z,99151.28
2018-08-23T03:12:00.887Z,99144.69
2018-08-23T03:14:31.968Z,99147.64
2018-08-23T03:17:38.647Z,99142.02
2018-08-23T03:20:17.079Z,99143.70
2018-08-23T03:22:48.743Z,99142.39
2018-08-23T03:25:19.885Z,99141.33
2018-08-23T03:27:50.166Z,99146.25
2018-08-23T03:30:20.600Z,99143.63
2018-08-23T03:32:51.282Z,99141.17
2018-08-23T03:35:20.942Z,99139.83
2018-08-23T03:37:52.007Z,99148.63
2018-08-23T03:40:22.497Z,99152.62
2018-08-23T03:42:52.866Z,99151.04
2018-08-23T03:45:28.971Z,99150.25
2018-08-23T03:47:59.330Z,99151.90
2018-08-23T03:50:30.391Z,99151.34
2018-08-23T03:53:01.496Z,99148.12
2018-08-23T03:55:37.066Z,99147.09
2018-08-23T03:58:06.821Z,99144.70
2018-08-23T04:00:46.535Z,99150.91
2018-08-23T04:03:20.340Z,99148.53
2018-08-23T04:05:50.219Z,99151.17
2018-08-23T04:08:22.853Z,99145.59
2018-08-23T04:10:53.993Z,99143.48
2018-08-23T04:13:23.946Z,99144.00
2018-08-23T04:15:53.553Z,99142.95
2018-08-23T04:18:23.852Z,99142.41
2018-08-23T04:20:58.745Z,99143.73
2018-08-23T04:23:28.563Z,99145.47
2018-08-23T04:26:01.247Z,99142.80
2018-08-23T04:28:31.280Z,99145.20
2018-08-23T04:31:02.653Z,99147.87
2018-08-23T04:33:32.545Z,99148.67
2018-08-23T04:36:02.904Z,99151.05
2018-08-23T04:38:33.310Z,99144.14
2018-08-23T04:41:09.173Z,99154.30
2018-08-23T04:43:39.128Z,99147.06
2018-08-23T04:46:22.005Z,99149.94
2018-08-23T04:48:51.718Z,99143.57
2018-08-23T04:51:21.386Z,99143.20
2018-08-23T04:53:51.766Z,99148.27
2018-08-23T04:56:23.087Z,99144.80
2018-08-23T04:58:52.774Z,99140.86
2018-08-23T05:01:22.677Z,99145.38
2018-08-23T05:03:53.160Z,99141.45
2018-08-23T05:06:22.888Z,99147.98
2018-08-23T05:08:52.402Z,99141.27
2018-08-23T05:11:21.863Z,99143.34
2018-08-23T05:13:53.388Z,99145.19
2018-08-23T05:16:23.126Z,99144.14
2018-08-23T05:18:54.210Z,99142.80
2018-08-23T05:21:24.431Z,99140.27
2018-08-23T05:23:58.688Z,99133.37
2018-08-23T05:26:30.372Z,99137.58
2018-08-23T05:29:04.470Z,99110.78
2018-08-23T05:31:34.706Z,99137.77
2018-08-23T05:34:09.093Z,99139.05
2018-08-23T05:36:40.262Z,99103.86
2018-08-23T05:39:11.981Z,99138.97
2018-08-23T05:41:42.357Z,99133.56
2018-08-23T05:44:21.759Z,99131.58
2018-08-23T05:46:58.516Z,99140.67
2018-08-23T05:49:31.941Z,99131.69
2018-08-23T05:52:01.743Z,99137.44
2018-08-23T05:54:33.399Z,99135.95
2018-08-23T05:57:05.105Z,99134.78
2018-08-23T05:59:35.998Z,99136.38
2018-08-23T06:02:06.670Z,99134.91
2018-08-23T06:04:43.225Z,99134.81
2018-08-23T06:07:13.968Z,99128.66
2018-08-23T06:09:48.264Z,99131.26
2018-08-23T06:12:18.946Z,99091.72
2018-08-23T06:14:49.425Z,99096.59
2018-08-23T06:17:19.665Z,99115.00
2018-08-23T06:19:50.028Z,99121.48
2018-08-23T06:22:20.106Z,99115.36
2018-08-23T06:24:50.943Z,99120.41
2018-08-23T06:27:20.828Z,99109.70
2018-08-23T06:29:51.235Z,99115.04
2018-08-23T06:32:22.278Z,99107.48
2018-08-23T06:34:53.188Z,99109.61
2018-08-23T06:37:25.977Z,99106.56
2018-08-23T06:39:57.855Z,99084.52
2018-08-23T06:43:08.937Z,99100.92
2018-08-23T06:45:40.254Z,99083.09
2018-08-23T06:48:10.552Z,99103.12
2018-08-23T06:50:49.038Z,99099.94
2018-08-23T06:53:20.816Z,99102.27
2018-08-23T06:55:50.740Z,99102.91
2018-08-23T06:58:20.214Z,99102.42
2018-08-23T07:00:53.246Z,99102.09
2018-08-23T07:03:22.893Z,99094.23
2018-08-23T07:05:52.404Z,99090.63
2018-08-23T07:08:24.702Z,99091.23
2018-08-23T07:11:02.016Z,99094.85
2018-08-23T07:13:33.004Z,99086.00
2018-08-23T07:16:03.995Z,99077.50
2018-08-23T07:18:35.774Z,99080.88
2018-08-23T07:21:09.031Z,99082.25
2018-08-23T07:23:42.221Z,99082.04
2018-08-23T07:26:18.301Z,99083.95
2018-08-23T07:28:48.928Z,99079.95
2018-08-23T07:31:20.204Z,99079.33
2018-08-23T07:33:58.907Z,99083.45
2018-08-23T07:36:33.910Z,99078.80
2018-08-23T07:39:15.077Z,99077.34
2018-08-23T07:42:19.031Z,99076.78
2018-08-23T07:48:11.919Z,99081.17
2018-08-23T07:50:55.182Z,99075.10
2018-08-23T07:53:33.140Z,99055.92
2018-08-23T07:56:14.682Z,99056.05
2018-08-23T07:58:51.363Z,99075.88
2018-08-23T08:01:31.469Z,99067.31
2018-08-23T08:04:23.057Z,99070.27
2018-08-23T08:06:56.488Z,99070.48
2018-08-23T08:09:30.193Z,99049.50
2018-08-23T08:12:05.740Z,99070.42
2018-08-23T08:14:39.496Z,99067.19
2018-08-23T08:17:23.425Z,99065.98
2018-08-23T08:19:58.252Z,99067.60
2018-08-23T08:22:29.741Z,99060.32
2018-08-23T08:25:09.797Z,99065.03
2018-08-23T08:27:40.928Z,99065.28
2018-08-23T08:30:15.604Z,99069.44
2018-08-23T08:32:46.179Z,99065.72
2018-08-23T08:35:22.396Z,99064.92
2018-08-23T08:37:55.691Z,99072.16
2018-08-23T08:40:38.025Z,99065.25
2018-08-23T08:43:16.793Z,99055.80
2018-08-23T08:45:54.713Z,99058.02
2018-08-23T08:48:36.837Z,99056.20
2018-08-23T08:51:19.465Z,99050.23
2018-08-23T08:53:49.137Z,99049.98
2018-08-23T08:56:23.550Z,99050.75
2018-08-23T08:58:53.292Z,99042.71
2018-08-23T09:01:23.637Z,99040.09
2018-08-23T09:03:53.062Z,99042.06
2018-08-23T09:06:23.938Z,99037.06
2018-08-23T09:08:53.931Z,99026.29
2018-08-23T09:11:25.221Z,99024.63
2018-08-23T09:13:54.994Z,99018.27
2018-08-23T09:16:25.264Z,99015.82
2018-08-23T09:19:00.583Z,99006.30
2018-08-23T09:21:31.098Z,99006.02
2018-08-23T09:24:38.906Z,99005.56
2018-08-23T09:27:17.985Z,98997.22
2018-08-23T09:29:48.448Z,99001.38
2018-08-23T09:32:24.411Z,99000.16
2018-08-23T09:35:05.815Z,98999.25
2018-08-23T09:37:39.078Z,98992.12
2018-08-23T09:40:09.390Z,98988.32
2018-08-23T09:42:39.510Z,98982.06
2018-08-23T09:45:15.711Z,98986.04
2018-08-23T09:47:45.430Z,98980.80
2018-08-23T09:50:15.651Z,98983.08
2018-08-23T09:52:47.858Z,98975.60
2018-08-23T09:55:19.286Z,98977.48
2018-08-23T09:57:52.144Z,98971.64
2018-08-23T10:00:30.382Z,98971.50
2018-08-23T10:03:05.400Z,98966.64
2018-08-23T10:05:45.966Z,98968.00
2018-08-23T10:08:22.400Z,98957.73
2018-08-23T10:10:57.178Z,98956.07
2018-08-23T10:13:35.763Z,98962.94
2018-08-23T10:16:13.873Z,98948.99
2018-08-23T10:18:50.937Z,98951.53
2018-08-23T10:21:26.405Z,98952.28
2018-08-23T10:24:13.738Z,98929.48
2018-08-23T10:26:44.301Z,98940.90
2018-08-23T10:29:14.605Z,98941.09
2018-08-23T10:31:45.165Z,98936.53
2018-08-23T10:34:14.919Z,98945.48
2018-08-23T10:36:45.050Z,98941.50
2018-08-23T10:39:16.383Z,98937.43
2018-08-23T10:41:46.222Z,98939.69
2018-08-23T10:44:16.959Z,98937.90
2018-08-23T10:47:01.596Z,98936.38
2018-08-23T10:49:32.082Z,98934.09
2018-08-23T10:52:04.254Z,98933.23
2018-08-23T10:54:34.358Z,98929.98
2018-08-23T10:57:11.134Z,98923.86
2018-08-23T10:59:42.912Z,98923.64
2018-08-23T11:02:13.527Z,98922.61
2018-08-23T11:04:44.460Z,98914.00
2018-08-23T11:07:16.365Z,98906.46
2018-08-23T11:09:53.788Z,98909.80
2018-08-23T11:12:30.609Z,98903.02
2018-08-23T11:15:10.468Z,98894.22
2018-08-23T11:17:57.503Z,98884.04
2018-08-23T11:20:30.834Z,98885.47
2018-08-23T11:23:04.828Z,98880.83
2018-08-23T11:25:36.497Z,98870.66
2018-08-23T11:28:12.416Z,98875.28
2018-08-23T11:30:42.453Z,98883.13
2018-08-23T11:33:12.289Z,98863.92
2018-08-23T11:35:42.912Z,98861.61
2018-08-23T11:38:12.704Z,98855.25
2018-08-23T11:40:43.056Z,98859.44
2018-08-23T11:43:12.993Z,98850.26
2018-08-23T11:45:42.640Z,98859.45
2018-08-23T11:48:19.250Z,98846.05
2018-08-23T11:50:50.052Z,98851.53
2018-08-23T11:53:20.739Z,98834.52
2018-08-23T11:55:51.744Z,98851.73
2018-08-23T11:58:22.155Z,98839.45
2018-08-23T12:00:53.426Z,98844.53
2018-08-23T12:03:24.081Z,98835.00
2018-08-23T12:05:57.098Z,98839.34
2018-08-23T12:08:34.765Z,98840.41
2018-08-23T12:11:05.910Z,98834.76
2018-08-23T12:13:37.126Z,98828.91
2018-08-23T12:16:10.577Z,98834.83
2018-08-23T12:18:40.150Z,98837.17
2018-08-23T12:21:10.839Z,98846.02
2018-08-23T12:23:40.437Z,98838.56
2018-08-23T12:26:10.726Z,98841.95
2018-08-23T12:28:45.178Z,98847.28
2018-08-23T12:31:16.919Z,98850.37
2018-08-23T12:33:52.235Z,98847.78
2018-08-23T12:36:27.160Z,98854.75
2018-08-23T12:39:06.362Z,98856.20
2018-08-23T12:41:41.125Z,98864.91
2018-08-23T12:44:11.397Z,98859.11
2018-08-23T12:46:40.987Z,98865.67
2018-08-23T12:49:11.138Z,98866.11
2018-08-23T12:51:40.830Z,98863.33
2018-08-23T12:54:10.229Z,98855.11
2018-08-23T12:56:41.055Z,98868.08
2018-08-23T12:59:11.146Z,98860.06
2018-08-23T13:01:40.783Z,98880.73
2018-08-23T13:04:10.563Z,98880.68
2018-08-23T13:06:40.837Z,98888.67
2018-08-23T13:09:10.357Z,98896.25
2018-08-23T13:11:40.438Z,98872.50
2018-08-23T13:14:09.845Z,98904.42
2018-08-23T13:16:39.738Z,98907.92
2018-08-23T13:19:10.087Z,98909.27
2018-08-23T13:21:39.874Z,98918.45
2018-08-23T13:24:10.282Z,98916.65
2018-08-23T13:26:45.941Z,98970.01
2018-08-23T13:29:16.126Z,98999.34
2018-08-23T13:31:46.809Z,99020.03
2018-08-23T13:34:17.295Z,99027.62
2018-08-23T13:36:48.474Z,99023.16
2018-08-23T13:39:21.276Z,98990.77
2018-08-23T13:41:53.494Z,98979.18
2018-08-23T13:44:23.164Z,98971.14
2018-08-23T13:46:52.843Z,98973.38
2018-08-23T13:49:23.350Z,98969.22
2018-08-23T13:51:53.866Z,98960.13
2018-08-23T13:54:26.540Z,98918.98
2018-08-23T13:56:56.416Z,98945.02
2018-08-23T13:59:27.072Z,98940.84
2018-08-23T14:01:56.866Z,98926.95
2018-08-23T14:04:26.467Z,98916.55
2018-08-23T14:06:55.936Z,98914.84
2018-08-23T14:09:25.491Z,98906.27
2018-08-23T14:11:57.694Z,98906.34
2018-08-23T14:14:30.496Z,98902.63
2018-08-23T14:17:10.248Z,98904.28
2018-08-23T14:19:40.440Z,98892.70
2018-08-23T14:22:10.473Z,98885.18
2018-08-23T14:24:40.073Z,98874.23
2018-08-23T14:27:13.493Z,98874.36
2018-08-23T14:29:46.822Z,98875.33
2018-08-23T14:32:17.067Z,98873.11
2018-08-23T14:34:47.981Z,98875.27
2018-08-23T14:37:22.410Z,98874.21
2018-08-23T14:39:53.250Z,98862.61
2018-08-23T14:42:23.802Z,98868.94
2018-08-23T14:44:54.551Z,98867.26
2018-08-23T14:47:32.006Z,98873.23
2018-08-23T14:50:03.153Z,98889.68
2018-08-23T14:52:33.196Z,98885.53
2018-08-23T14:55:03.686Z,98881.63
2018-08-23T14:57:38.459Z,98874.37
2018-08-23T15:00:08.556Z,98879.19
2018-08-23T15:02:38.467Z,98872.00
2018-08-23T15:05:08.736Z,98869.11
2018-08-23T15:07:41.593Z,98866.97
2018-08-23T15:10:15.959Z,98864.98
2018-08-23T15:12:47.241Z,98856.33
2018-08-23T15:15:19.099Z,98859.19
2018-08-23T15:17:50.904Z,98853.52
2018-08-23T15:20:21.503Z,98846.34
2018-08-23T15:22:52.943Z,98832.95
2018-08-23T15:25:28.483Z,98832.10
2018-08-23T15:28:01.244Z,98830.46
2018-08-23T15:30:35.980Z,98824.47
2018-08-23T15:33:09.720Z,98816.88
2018-08-23T15:35:39.952Z,98818.00
2018-08-23T15:38:10.723Z,98810.61
2018-08-23T15:40:41.917Z,98807.59
2018-08-23T15:43:15.303Z,98801.92
2018-08-23T15:45:45.606Z,98792.03
2018-08-23T15:48:21.421Z,98804.03
2018-08-23T15:50:54.421Z,98795.09
2018-08-23T15:53:25.309Z,98796.34
2018-08-23T15:55:56.959Z,98792.17
2018-08-23T15:58:28.036Z,98789.84
2018-08-23T16:00:58.085Z,98790.19
2018-08-23T16:03:28.541Z,98789.57
2018-08-23T16:06:01.509Z,98783.44
2018-08-23T16:09:38.394Z,98784.02
2018-08-23T16:12:10.497Z,98777.29
2018-08-23T16:14:40.258Z,98774.23
2018-08-23T16:17:15.119Z,98761.50
2018-08-23T16:19:50.838Z,98747.08
2018-08-23T16:22:22.562Z,98761.01
2018-08-23T16:24:52.472Z,98761.78
2018-08-23T16:27:22.820Z,98763.15
2018-08-23T16:29:53.579Z,98762.34
2018-08-23T16:32:31.007Z,98770.59
2018-08-23T16:35:00.795Z,98760.88
2018-08-23T16:37:32.502Z,98757.91
2018-08-23T16:40:03.662Z,98755.25
2018-08-23T16:42:33.620Z,98751.41
2018-08-23T16:45:06.237Z,98752.38
2018-08-23T16:47:36.646Z,98750.61
2018-08-23T16:50:07.419Z,98738.56
2018-08-23T16:52:37.027Z,98732.56
2018-08-23T16:55:06.847Z,98742.77
2018-08-23T16:57:36.563Z,98736.33
2018-08-23T17:00:06.854Z,98737.38
2018-08-23T17:02:37.049Z,98739.88
2018-08-23T17:05:07.374Z,98714.57
2018-08-23T17:07:39.012Z,98735.35
2018-08-23T17:10:08.787Z,98736.25
2018-08-23T17:12:38.763Z,98736.05
2018-08-23T17:15:13.469Z,98739.52
2018-08-23T17:17:49.118Z,98731.96
2018-08-23T17:20:19.170Z,98738.52
2018-08-23T17:22:50.456Z,98740.68
2018-08-23T17:25:21.396Z,98716.59
2018-08-23T17:27:52.130Z,98738.59
2018-08-23T17:30:22.587Z,98733.14
2018-08-23T17:32:53.008Z,98732.80
2018-08-23T17:35:24.135Z,98731.59
2018-08-23T17:37:54.998Z,98729.47
2018-08-23T17:40:25.583Z,98729.38
2018-08-23T17:42:56.590Z,98724.56
2018-08-23T17:45:26.756Z,98722.53
2018-08-23T17:47:59.598Z,98721.09
2018-08-23T17:50:32.325Z,98726.48
2018-08-23T17:53:03.055Z,98718.81
2018-08-23T17:55:36.489Z,98719.73
2018-08-23T17:58:06.222Z,98719.73
2018-08-23T18:00:37.220Z,98720.61
2018-08-23T18:03:08.442Z,98722.08
2018-08-23T18:05:38.323Z,98723.29
2018-08-23T18:08:08.300Z,98720.59
2018-08-23T18:10:40.943Z,98716.31
2018-08-23T18:13:11.566Z,98719.23
2018-08-23T18:15:47.828Z,98718.20
2018-08-23T18:18:18.533Z,98717.41
2018-08-23T18:20:48.149Z,98714.70
2018-08-23T18:23:19.052Z,98704.83
2018-08-23T18:25:49.712Z,98707.97
2018-08-23T18:28:21.156Z,98716.34
2018-08-23T18:30:51.180Z,98711.62
2018-08-23T18:33:22.725Z,98717.32
2018-08-23T18:35:54.938Z,98715.98
2018-08-23T18:38:26.295Z,98713.50
2018-08-23T18:40:56.245Z,98710.56
2018-08-23T18:43:27.276Z,98713.48
2018-08-23T18:45:57.764Z,98713.11
2018-08-23T18:48:29.010Z,98715.56
2018-08-23T18:50:58.862Z,98716.27
2018-08-23T18:53:30.962Z,98713.03
2018-08-23T18:56:03.314Z,98714.52
2018-08-23T18:58:33.259Z,98714.72
2018-08-23T19:01:03.235Z,98726.17
2018-08-23T19:03:36.070Z,98735.80
2018-08-23T19:06:07.123Z,98743.37
2018-08-23T19:08:38.379Z,98742.15
2018-08-23T19:11:09.111Z,98745.51
2018-08-23T19:13:39.291Z,98748.30
2018-08-23T19:16:15.932Z,98756.52
2018-08-23T19:18:46.638Z,98752.33
2018-08-23T19:21:16.392Z,98754.46
2018-08-23T19:23:45.933Z,98754.86
2018-08-23T19:26:15.853Z,98757.10
2018-08-23T19:28:45.745Z,98759.95
2018-08-23T19:31:15.854Z,98755.12
2018-08-23T19:33:45.647Z,98761.63
2018-08-23T19:36:15.513Z,98760.33
2018-08-23T19:38:45.216Z,98757.52
2018-08-23T19:41:15.814Z,98760.57
2018-08-23T19:43:50.897Z,98757.09
2018-08-23T19:46:29.206Z,98754.05
2018-08-23T19:49:04.437Z,98760.34
2018-08-23T19:51:33.990Z,98756.64
2018-08-23T19:54:03.815Z,98753.95
2018-08-23T19:56:33.844Z,98762.95
2018-08-23T19:59:03.931Z,98758.22
2018-08-23T20:01:33.609Z,98753.01
2018-08-23T20:04:03.580Z,98754.80
2018-08-23T20:06:34.628Z,98751.03
2018-08-23T20:09:05.746Z,98750.48
2018-08-23T20:11:36.901Z,98751.50
2018-08-23T20:14:07.310Z,98744.33
2018-08-23T20:16:37.808Z,98751.69
2018-08-23T20:19:07.457Z,98745.20
2018-08-23T20:21:37.388Z,98754.81
2018-08-23T20:24:07.602Z,98749.33
2018-08-23T20:26:37.394Z,98744.77
2018-08-23T20:29:09.040Z,98742.09
2018-08-23T20:31:38.964Z,98745.50
2018-08-23T20:34:09.915Z,98747.39
2018-08-23T20:36:39.889Z,98740.01
2018-08-23T20:39:13.136Z,98752.45
2018-08-23T20:41:43.916Z,98763.22
2018-08-23T20:44:14.731Z,98778.59
2018-08-23T20:46:44.341Z,98780.48
2018-08-23T20:49:14.299Z,98774.34
2018-08-23T20:51:44.623Z,98784.64
2018-08-23T20:54:14.170Z,98793.41
2018-08-23T20:56:44.309Z,98795.53
2018-08-23T20:59:14.398Z,98788.52
2018-08-23T21:01:45.110Z,98788.34
2018-08-23T21:04:14.857Z,98788.59
2018-08-23T21:06:44.823Z,98793.54
2018-08-23T21:09:14.630Z,98791.89
2018-08-23T21:11:44.318Z,98785.14
2018-08-23T21:14:14.343Z,98792.61
2018-08-23T21:16:44.016Z,98790.00
2018-08-23T21:19:13.514Z,98789.31
2018-08-23T21:21:43.030Z,98792.06
2018-08-23T21:24:12.672Z,98801.21
2018-08-23T21:26:42.393Z,98808.36
2018-08-23T21:29:12.454Z,98807.42
2018-08-23T21:31:42.242Z,98805.53
2018-08-23T21:34:11.782Z,98805.68
2018-08-23T21:36:41.765Z,98799.63
2018-08-23T21:39:11.249Z,98800.71
2018-08-23T21:41:40.914Z,98795.70
2018-08-23T21:44:11.408Z,98791.27
2018-08-23T21:46:41.132Z,98789.77
2018-08-23T21:49:10.623Z,98785.27
2018-08-23T21:51:40.470Z,98788.98
2018-08-23T21:54:15.210Z,98780.87
2018-08-23T21:56:45.716Z,98778.36
2018-08-23T21:59:15.968Z,98774.65
2018-08-23T22:01:46.686Z,98769.05
2018-08-23T22:04:16.722Z,98762.70
2018-08-23T22:06:46.235Z,98755.13
2018-08-23T22:09:18.503Z,98752.28
2018-08-23T22:11:48.068Z,98743.16
2018-08-23T22:14:17.511Z,98752.16
2018-08-23T22:16:46.940Z,98739.69
2018-08-23T22:19:16.837Z,98744.89
2018-08-23T22:21:46.723Z,98739.16
2018-08-23T22:24:16.449Z,98732.22
2018-08-23T22:26:46.206Z,98732.53
2018-08-23T22:29:16.878Z,98732.38
2018-08-23T22:31:46.515Z,98728.16
2018-08-23T22:34:16.812Z,98723.84
2018-08-23T22:36:46.887Z,98721.48
2018-08-23T22:39:16.900Z,98721.41
2018-08-23T22:41:47.005Z,98717.45
2018-08-23T22:44:17.356Z,98713.99
2018-08-23T22:46:47.662Z,98694.16
2018-08-23T22:49:17.238Z,98710.30
2018-08-23T22:51:46.817Z,98698.81
2018-08-23T22:54:16.999Z,98702.41
2018-08-23T22:56:46.597Z,98700.34
2018-08-23T22:59:16.553Z,98709.01
2018-08-23T23:01:47.487Z,98701.84
2018-08-23T23:04:28.541Z,98710.73
2018-08-23T23:06:59.734Z,98708.22
2018-08-23T23:09:30.967Z,98710.50
2018-08-23T23:12:02.329Z,98705.33
2018-08-23T23:14:31.938Z,98701.92
2018-08-23T23:17:06.270Z,98705.17
2018-08-23T23:19:35.817Z,98692.44
2018-08-23T23:22:05.590Z,98688.81
2018-08-23T23:24:40.475Z,98683.55
2018-08-23T23:27:09.877Z,98682.52
2018-08-23T23:29:39.333Z,98692.25
2018-08-23T23:32:09.644Z,98685.57
2018-08-23T23:34:39.148Z,98695.72
2018-08-23T23:37:08.525Z,98697.39
2018-08-23T23:39:38.988Z,98701.38
2018-08-23T23:42:08.623Z,98700.19
2018-08-23T23:44:38.395Z,98699.89
2018-08-23T23:47:07.971Z,98691.30
2018-08-23T23:49:37.489Z,98670.97
2018-08-23T23:52:06.921Z,98693.88
2018-08-23T23:54:36.487Z,98691.30
2018-08-23T23:57:06.169Z,98684.67
2018-08-23T23:59:36.754Z,98689.16
